MDT,Max TemperatureF,Mean TemperatureF,Min TemperatureF,Max Dew PointF,MeanDew PointF,Min DewpointF,Max Humidity, Mean Humidity, Min Humidity, Max Sea Level PressureIn, Mean Sea Level PressureIn, Min Sea Level PressureIn, Max VisibilityMiles, Mean VisibilityMiles, Min VisibilityMiles, Max Wind SpeedMPH, Mean Wind SpeedMPH, Max Gust SpeedMPH,PrecipitationIn, CloudCover, Events, WindDirDegrees
2012-3-1,62,48,33,25,10,2,59,34,9,29.96,29.80,29.62,10,10,7,41,15,49,0.00,2,,274
2012-3-2,42,34,25,21,11,-7,63,39,14,30.19,29.94,29.74,10,10,7,31,14,38,T,2,Snow,317
2012-3-3,49,36,23,12,7,2,46,31,16,30.36,30.28,30.22,10,10,10,24,12,31,0.00,1,,337
2012-3-4,61,46,30,18,15,13,47,32,17,30.34,30.23,30.13,10,10,10,21,8,25,0.00,0,,353
2012-3-5,66,48,30,19,16,12,51,32,13,30.25,30.11,29.96,10,10,10,13,4,16,0.00,3,,75
2012-3-6,67,54,41,16,8,1,31,20,8,29.96,29.75,29.58,10,10,10,23,9,29,0.00,5,,161
2012-3-7,67,54,40,28,8,-4,64,35,6,29.87,29.65,29.51,10,10,7,37,18,46,0.00,2,,209
2012-3-8,44,39,34,28,22,15,82,58,33,30.50,30.19,29.84,10,8,1,55,26,68,T,6,Snow,98
2012-3-9,42,37,31,26,21,15,64,51,37,30.51,30.41,30.26,10,10,10,26,16,33,T,7,Snow,101
2012-3-10,45,39,33,34,26,21,76,63,49,30.25,30.08,29.97,10,9,2,28,12,32,0.04,8,Snow,139
2012-3-11,63,48,32,32,25,11,100,57,13,29.99,29.92,29.81,10,8,1,24,10,30,0.14,4,Snow,196
2012-3-12,66,52,37,23,15,7,52,31,10,30.09,30.00,29.92,10,10,10,13,4,15,0.00,0,,143
2012-3-13,70,54,37,19,11,2,41,24,7,30.08,29.99,29.90,10,10,9,13,4,17,0.00,0,,128
2012-3-14,70,54,38,16,8,-3,37,22,6,30.07,30.00,29.94,10,10,10,13,4,16,0.00,0,,117
2012-3-15,72,54,36,15,8,0,44,25,6,30.15,30.04,29.96,10,10,10,9,5,12,0.00,0,,120
2012-3-16,74,57,40,11,5,-1,23,14,5,30.02,29.90,29.77,10,10,10,13,5,18,0.00,0,,155
2012-3-17,74,56,38,12,8,4,30,18,6,29.87,29.75,29.63,10,10,10,25,9,30,0.00,4,,187
2012-3-18,65,51,37,36,24,13,57,37,16,29.72,29.58,29.42,10,6,0,53,21,66,0.02,6,Rain,193
2012-3-19,45,39,33,26,14,1,59,39,19,29.80,29.71,29.64,10,10,10,20,12,27,0.00,6,,287
2012-3-20,53,42,31,20,13,-1,63,38,13,29.97,29.86,29.77,10,10,10,26,14,33,0.00,4,,344
2012-3-21,65,48,30,20,13,9,39,26,13,30.03,29.92,29.78,10,10,10,22,10,32,0.00,1,,338
2012-3-22,71,55,39,22,19,12,43,27,11,29.91,29.85,29.76,10,10,10,13,5,17,0.00,0,,322
2012-3-23,76,58,40,19,16,11,44,27,9,30.13,30.02,29.90,10,10,10,8,4,,0.00,0,,119
2012-3-24,76,60,44,21,18,12,40,25,10,30.10,29.96,29.89,10,10,10,12,4,15,0.00,2,,136
2012-3-25,83,65,47,19,17,14,31,20,8,29.99,29.87,29.75,10,10,10,29,9,38,0.00,5,,175
2012-3-26,79,65,50,20,11,-1,24,15,5,29.85,29.78,29.68,10,10,10,23,10,31,0.00,2,,215
2012-3-27,74,59,43,20,12,5,31,19,7,30.00,29.92,29.86,10,10,10,14,4,17,0.00,0,,104
2012-3-28,76,60,43,15,9,5,25,16,6,30.02,29.91,29.79,10,10,10,12,4,17,0.00,0,,174
2012-3-29,75,57,39,13,9,4,24,15,6,29.95,29.86,29.78,10,10,10,17,5,26,0.00,1,,237
2012-3-30,77,59,41,20,16,13,33,21,9,29.94,29.86,29.78,10,10,10,17,4,23,0.00,1,,254
2012-3-31,80,64,47,24,19,13,31,20,9,29.93,29.82,29.70,10,10,10,18,6,25,0.00,3,,184